Time;durP1;ratioP1;P1;durP2;ratioP2;P2;SDS_P1;SDS_P2;PMS_P1;PMS_P2;Temp;Humidity;BMP_temperature;BMP_pressure;BME280_temperature;BME280_humidity;BME280_pressure;Samples;Min_cycle;Max_cycle;Signal;HPM_P1;HPM_P2
2022/02/02 00:00:18;;;;;;;26.00;6.22;;;;;;;7.94;92.86;101683.72;10543702;28;20109;-70
2022/02/02 00:15:43;;;;;;;22.60;9.07;;;;;;;7.65;93.59;101668.72;10544714;28;20263;-70
2022/02/02 00:21:01;;;;;;;25.25;9.13;;;;;;;7.61;94.03;101672.75;10510242;28;20048;-71
2022/02/02 00:26:07;;;;;;;35.17;8.95;;;;;;;7.54;94.39;101657.41;10543301;28;20025;-69
2022/02/02 00:37:31;;;;;;;59.25;9.52;;;;;;;7.59;94.32;101680.16;10680975;22;20143;-70
2022/02/02 00:42:32;;;;;;;20.20;8.00;;;;;;;7.56;93.56;101677.81;10440043;28;20049;-71
2022/02/02 00:47:37;;;;;;;35.42;8.55;;;;;;;7.49;94.08;101673.19;10439002;28;20360;-70
2022/02/02 00:52:38;;;;;;;33.22;8.82;;;;;;;7.47;93.99;101678.75;10456926;28;20094;-69
2022/02/02 00:57:38;;;;;;;37.90;9.90;;;;;;;7.44;94.36;101673.66;10439428;28;20033;-70
2022/02/02 01:02:39;;;;;;;35.45;10.02;;;;;;;7.49;93.85;101689.34;10439015;28;20153;-71
2022/02/02 01:28:23;;;;;;;28.30;9.45;;;;;;;7.46;94.17;101687.81;10444895;28;20048;-71
2022/02/02 01:33:23;;;;;;;36.05;8.73;;;;;;;7.37;94.99;101703.09;10464059;28;20037;-71
2022/02/02 01:38:27;;;;;;;47.17;8.30;;;;;;;7.35;95.45;101693.47;10427247;28;20040;-70
2022/02/02 01:43:32;;;;;;;31.40;9.23;;;;;;;7.38;94.88;101695.84;10461860;28;20040;-71
2022/02/02 01:54:16;;;;;;;22.73;8.70;;;;;;;7.27;96.50;101717.66;10461608;28;20075;-71
2022/02/02 01:59:30;;;;;;;49.53;9.23;;;;;;;7.29;95.98;101739.91;10460923;28;20427;-71
2022/02/02 02:04:30;;;;;;;26.83;6.57;;;;;;;7.22;96.16;101748.59;10428323;28;20087;-71
2022/02/02 02:09:31;;;;;;;26.38;9.25;;;;;;;7.35;96.25;101736.59;10443165;28;20068;-71
2022/02/02 02:14:44;;;;;;;27.13;8.57;;;;;;;7.37;97.73;101761.50;10461025;28;20167;-70
2022/02/02 02:19:49;;;;;;;31.63;9.27;;;;;;;7.54;97.20;101768.75;10429749;28;20136;-71
2022/02/02 02:24:50;;;;;;;48.03;9.52;;;;;;;7.67;96.69;101735.97;10460549;28;20040;-71
2022/02/02 02:56:01;;;;;;;17.50;8.23;;;;;;;8.02;95.36;101736.88;10430089;28;20037;-70
2022/02/02 04:09:18;;;;;;;33.10;8.98;;;;;;;8.13;94.71;101756.31;10456566;28;20075;-71
2022/02/02 05:07:20;;;;;;;35.28;9.45;;;;;;;8.09;95.71;101781.06;10462521;28;20044;-71
2022/02/02 05:17:30;;;;;;;31.08;8.10;;;;;;;8.03;96.16;101796.03;10444923;28;20047;-70
2022/02/02 05:53:44;;;;;;;20.90;7.13;;;;;;;8.06;96.30;101827.25;10445135;28;20033;-75
2022/02/02 05:58:46;;;;;;;31.90;10.32;;;;;;;8.08;96.60;101833.34;10461939;28;20124;-74
2022/02/02 06:04:02;;;;;;;54.35;10.27;;;;;;;8.02;96.99;101831.28;10446071;28;20503;-73
2022/02/02 06:09:03;;;;;;;;;;;;;;;7.99;96.72;101828.91;10428763;28;20091;-73
2022/02/02 06:14:04;;;;;;;17.13;7.60;;;;;;;8.00;96.92;101847.59;10462707;28;19912;-72
2022/02/02 06:19:04;;;;;;;14.35;5.72;;;;;;;8.00;96.62;101850.31;10332332;28;20796;-72
2022/02/02 06:24:04;;;;;;;17.67;7.20;;;;;;;7.93;96.63;101857.34;10459648;28;20044;-72
2022/02/02 06:29:07;;;;;;;45.10;9.70;;;;;;;7.81;96.27;101866.66;10460844;28;20043;-72
2022/02/02 06:34:10;;;;;;;35.80;8.13;;;;;;;7.68;96.30;101869.75;10424485;28;20532;-73
2022/02/02 06:39:11;;;;;;;25.58;6.97;;;;;;;7.59;97.44;101870.69;10426117;28;20040;-72
2022/02/02 06:44:13;;;;;;;35.38;8.48;;;;;;;7.58;97.68;101886.03;10459446;28;20476;-73
2022/02/02 06:49:13;;;;;;;29.45;8.30;;;;;;;7.62;98.36;101878.47;10424968;28;20047;-72
2022/02/02 06:54:28;;;;;;;31.83;7.70;;;;;;;7.76;98.93;101874.41;10459474;28;20044;-72
2022/02/02 06:59:56;;;;;;;24.95;6.80;;;;;;;7.84;99.29;101879.84;10427167;28;20064;-74
2022/02/02 07:10:16;;;;;;;18.45;6.80;;;;;;;8.15;98.53;101901.84;10442068;28;20037;-72
2022/02/02 07:20:39;;;;;;;10.05;4.97;;;;;;;8.29;97.96;101920.16;10441166;28;20041;-72
2022/02/02 07:31:06;;;;;;;23.33;5.80;;;;;;;8.28;97.82;101947.31;10440927;28;20681;-73
2022/02/02 07:36:17;;;;;;;13.77;4.50;;;;;;;8.20;98.17;101942.72;10443814;28;20053;-72
2022/02/02 07:41:26;;;;;;;23.90;6.57;;;;;;;8.21;98.27;101939.00;10442397;28;20025;-73
2022/02/02 07:46:28;;;;;;;38.50;9.15;;;;;;;8.25;99.04;101939.53;10439680;28;20552;-72
2022/02/02 07:51:31;;;;;;;12.75;5.32;;;;;;;8.19;99.90;101949.09;10440412;28;20040;-72
2022/02/02 07:56:40;;;;;;;22.55;5.00;;;;;;;8.25;100.00;101963.81;10457435;28;20438;-72
2022/02/02 08:01:42;;;;;;;10.75;5.57;;;;;;;8.30;100.00;101969.59;10439974;28;20041;-73
2022/02/02 08:06:50;;;;;;;21.13;5.88;;;;;;;8.34;100.00;101970.97;10456876;28;20073;-72
2022/02/02 08:11:52;;;;;;;24.65;4.85;;;;;;;8.41;100.00;101985.56;10440518;28;20037;-72
2022/02/02 08:16:52;;;;;;;11.55;5.22;;;;;;;8.43;100.00;101974.63;10458369;28;20048;-72
2022/02/02 08:21:53;;;;;;;23.15;4.53;;;;;;;8.46;100.00;101988.66;10460947;28;20037;-73
2022/02/02 08:26:54;;;;;;;21.02;5.95;;;;;;;8.52;100.00;101988.03;10461703;28;20055;-72
2022/02/02 08:31:55;;;;;;;15.75;5.30;;;;;;;8.59;100.00;101988.25;10457262;28;20448;-71
2022/02/02 08:36:56;;;;;;;23.33;5.07;;;;;;;8.59;100.00;101983.69;10456381;28;20500;-72
2022/02/02 08:42:02;;;;;;;12.93;4.30;;;;;;;8.58;100.00;101990.09;10456003;28;20052;-72
2022/02/02 08:47:07;;;;;;;15.75;5.18;;;;;;;8.54;100.00;101990.56;10440801;28;20044;-73
2022/02/02 08:52:08;;;;;;;9.20;5.03;;;;;;;8.66;100.00;101997.41;10424293;28;20041;-72
2022/02/02 08:57:42;;;;;;;17.33;4.88;;;;;;;8.87;100.00;101998.88;10438211;28;20041;-71
2022/02/02 09:02:34;;;;;;;15.32;5.00;;;;;;;9.05;100.00;102023.97;10440755;28;20274;-73
2022/02/02 09:07:36;;;;;;;8.27;4.72;;;;;;;9.13;100.00;102031.31;10457739;28;20041;-73
2022/02/02 09:23:29;;;;;;;9.45;3.90;;;;;;;9.40;99.62;102039.19;10456588;28;20045;-72
2022/02/02 09:34:02;;;;;;;14.07;5.13;;;;;;;9.57;98.79;102034.69;10455810;28;20041;-73
2022/02/02 09:39:10;;;;;;;9.82;3.28;;;;;;;9.74;98.88;102041.88;10439647;28;20033;-73
2022/02/02 09:44:14;;;;;;;25.30;7.00;;;;;;;9.83;99.06;102039.19;10422321;28;20037;-73
2022/02/02 09:54:31;;;;;;;23.60;4.45;;;;;;;10.01;98.24;102051.56;10430156;28;20119;-72
2022/02/02 10:05:09;;;;;;;11.18;4.55;;;;;;;10.00;97.26;102078.81;10444583;28;20123;-74
2022/02/02 10:15:23;;;;;;;9.25;3.30;;;;;;;9.97;97.50;102093.53;10462771;28;20124;-73
2022/02/02 10:20:25;;;;;;;12.45;4.32;;;;;;;9.98;97.85;102100.63;10445136;28;20040;-72
2022/02/02 10:25:50;;;;;;;16.23;3.47;;;;;;;9.95;97.27;102100.09;10461890;28;20128;-72
2022/02/02 10:30:54;;;;;;;6.88;3.65;;;;;;;10.09;97.45;102114.88;10446558;28;20029;-72
2022/02/02 10:35:59;;;;;;;4.78;3.38;;;;;;;10.13;97.50;102122.50;10463369;28;20120;-71
2022/02/02 10:41:16;;;;;;;6.03;2.88;;;;;;;10.35;97.34;102131.88;10452255;28;20130;-72
2022/02/02 10:51:49;;;;;;;4.38;3.38;;;;;;;10.77;96.74;102113.81;10444959;28;20036;-74
2022/02/02 11:07:08;;;;;;;7.15;2.60;;;;;;;10.86;94.75;102129.06;10460620;28;20071;-71
2022/02/02 11:12:09;;;;;;;8.35;4.47;;;;;;;10.96;94.55;102129.75;10441793;28;20033;-71
2022/02/02 11:17:33;;;;;;;19.40;3.47;;;;;;;11.02;94.83;102123.66;10424789;28;20048;-72
2022/02/02 11:22:37;;;;;;;11.18;4.20;;;;;;;11.12;95.05;102118.88;10457440;28;20123;-71
2022/02/02 11:27:48;;;;;;;13.43;3.92;;;;;;;11.06;94.47;102113.31;10440966;28;20548;-73
2022/02/02 11:32:57;;;;;;;8.25;4.20;;;;;;;11.11;93.38;102116.38;10440508;28;20087;-71
2022/02/02 11:37:59;;;;;;;5.30;2.58;;;;;;;11.18;94.12;102114.66;10440717;28;20477;-74
2022/02/02 11:48:14;;;;;;;7.75;3.60;;;;;;;11.22;94.10;102118.69;10457251;28;20037;-73
2022/02/02 11:53:48;;;;;;;7.13;2.83;;;;;;;11.20;93.58;102126.19;10442107;28;20041;-72
2022/02/02 11:58:49;;;;;;;6.07;3.08;;;;;;;11.14;92.70;102122.28;10457721;28;20041;-71
2022/02/02 12:04:09;;;;;;;15.23;2.83;;;;;;;11.30;93.40;102123.28;10439354;28;20337;-72
2022/02/02 12:56:41;;;;;;;14.65;3.10;;;;;;;11.14;94.26;102099.75;10464703;28;20393;-73
2022/02/02 13:01:41;;;;;;;3.17;2.17;;;;;;;10.92;94.92;102099.44;10447559;28;20033;-73
2022/02/02 13:06:42;;;;;;;6.40;2.15;;;;;;;10.81;95.08;102096.22;10437451;28;20469;-72
2022/02/02 13:11:42;;;;;;;11.52;2.33;;;;;;;10.67;94.24;102100.44;10455241;28;20116;-74
2022/02/02 13:16:42;;;;;;;8.60;3.05;;;;;;;10.66;94.67;102104.19;10455220;28;20053;-71
2022/02/02 13:21:50;;;;;;;1.83;1.73;;;;;;;10.52;93.11;102115.66;10441336;28;20095;-73
2022/02/02 13:27:02;;;;;;;8.35;3.03;;;;;;;10.38;94.29;102111.75;10431020;28;20032;-73
2022/02/02 13:32:31;;;;;;;9.00;2.13;;;;;;;10.31;94.64;102097.19;10445487;28;20040;-72
2022/02/02 13:43:08;;;;;;;6.38;2.35;;;;;;;10.44;94.85;102097.56;10446312;28;20095;-72
2022/02/02 13:53:50;;;;;;;13.38;3.40;;;;;;;10.60;94.86;102112.97;10446513;28;20443;-72
2022/02/02 14:35:28;;;;;;;8.70;3.47;;;;;;;10.47;95.57;102138.69;10444840;28;20053;-72
2022/02/02 14:40:44;;;;;;;4.07;2.63;;;;;;;10.49;95.60;102141.22;10442614;28;20037;-72
2022/02/02 14:45:50;;;;;;;4.55;2.60;;;;;;;10.44;94.48;102151.72;10459864;28;20064;-72
2022/02/02 14:51:00;;;;;;;5.63;2.93;;;;;;;10.40;94.68;102159.34;10442512;28;20056;-72
2022/02/02 15:23:55;;;;;;;6.10;3.35;;;;;;;9.55;94.34;102140.34;10440082;28;20037;-73
2022/02/02 15:27:50;;;;;;;7.25;2.13;;;;;;;9.39;95.06;102136.69;10428726;28;20029;-73
2022/02/02 15:32:53;;;;;;;6.97;4.00;;;;;;;9.50;95.99;102142.66;10440228;28;20033;-72
2022/02/02 15:38:06;;;;;;;11.10;2.85;;;;;;;9.60;95.75;102139.00;10457193;28;20049;-72
2022/02/02 15:43:25;;;;;;;8.02;3.20;;;;;;;9.70;95.82;102137.03;10456455;28;20029;-73
2022/02/02 15:59:13;;;;;;;8.07;3.50;;;;;;;9.51;95.71;102122.75;10456788;28;20045;-73
2022/02/02 16:04:20;;;;;;;6.45;3.05;;;;;;;9.54;95.22;102114.31;10438028;28;20041;-73
2022/02/02 16:09:28;;;;;;;10.88;4.35;;;;;;;9.45;95.58;102126.09;10439046;28;20105;-73
2022/02/02 16:14:29;;;;;;;5.07;3.50;;;;;;;9.45;95.79;102117.97;10438235;28;20037;-72
2022/02/02 16:19:38;;;;;;;7.03;3.80;;;;;;;9.49;96.00;102129.31;10456201;28;20037;-73
2022/02/02 16:24:49;;;;;;;14.48;4.55;;;;;;;9.52;96.04;102119.03;10439736;28;20037;-72
2022/02/02 16:40:39;;;;;;;5.80;3.10;;;;;;;9.32;97.06;102144.59;10441427;28;20492;-72
2022/02/02 16:45:42;;;;;;;3.42;3.05;;;;;;;9.29;97.65;102148.47;10437103;28;20090;-73
2022/02/02 16:50:45;;;;;;;5.28;3.30;;;;;;;9.24;98.06;102145.38;10437440;28;20410;-72
2022/02/02 16:55:50;;;;;;;10.43;4.15;;;;;;;9.24;98.15;102149.94;10440326;28;20365;-72
2022/02/02 17:28:48;;;;;;;6.10;4.88;;;;;;;9.01;99.97;102136.09;10465352;28;20040;-73
2022/02/02 17:33:15;;;;;;;7.57;5.30;;;;;;;8.97;100.00;102127.47;10464534;28;20102;-72
2022/02/02 17:38:19;;;;;;;16.50;10.20;;;;;;;8.94;100.00;102138.56;10443653;28;20051;-73
2022/02/02 18:20:33;;;;;;;13.07;9.95;;;;;;;8.83;100.00;102134.25;10445725;28;20397;-74
2022/02/02 18:25:45;;;;;;;16.73;10.43;;;;;;;8.76;100.00;102138.56;10460763;28;20092;-73
2022/02/02 18:31:20;;;;;;;16.80;11.07;;;;;;;8.81;100.00;102136.28;10460482;28;20040;-74
2022/02/02 18:47:01;;;;;;;17.35;10.93;;;;;;;8.80;100.00;102147.22;10445437;28;20041;-75
2022/02/02 19:55:42;;;;;;;16.80;10.18;;;;;;;8.85;100.00;102115.19;10457780;28;20048;-74
2022/02/02 20:11:16;;;;;;;17.52;8.55;;;;;;;8.85;100.00;102115.19;10456691;28;20041;-74
2022/02/02 20:16:16;;;;;;;13.05;6.93;;;;;;;8.79;100.00;102096.91;10444717;28;20115;-74
2022/02/02 20:21:21;;;;;;;10.98;7.55;;;;;;;8.80;100.00;102090.50;10399557;28;20101;-73
2022/02/02 20:26:24;;;;;;;10.18;6.70;;;;;;;8.74;100.00;102100.09;10414187;28;20343;-76
2022/02/02 20:31:24;;;;;;;7.05;5.53;;;;;;;8.79;100.00;102099.59;10401889;28;20032;-74
2022/02/02 20:36:24;;;;;;;8.27;4.80;;;;;;;8.82;100.00;102100.16;10475853;28;20483;-74
2022/02/02 20:41:25;;;;;;;7.18;5.43;;;;;;;8.83;100.00;102106.38;10478820;28;20029;-75
2022/02/02 21:18:22;;;;;;;11.50;6.32;;;;;;;8.86;100.00;102111.47;10398828;28;20033;-74
2022/02/02 21:28:23;;;;;;;12.13;5.07;;;;;;;8.94;100.00;102097.22;10412597;28;20032;-73
2022/02/02 21:33:24;;;;;;;6.80;4.88;;;;;;;8.92;100.00;102096.50;10396359;28;20095;-73
2022/02/02 21:43:25;;;;;;;9.02;3.13;;;;;;;8.90;100.00;102101.19;10417328;28;20037;-74
2022/02/02 21:48:32;;;;;;;6.65;5.03;;;;;;;8.92;100.00;102108.16;10387974;28;20547;-73
2022/02/02 21:53:33;;;;;;;8.10;4.47;;;;;;;8.98;100.00;102103.97;10421910;28;20037;-74
2022/02/02 21:58:33;;;;;;;6.85;4.05;;;;;;;8.97;100.00;102094.19;10428792;28;20052;-73
2022/02/02 22:03:34;;;;;;;5.55;5.15;;;;;;;8.94;100.00;102089.94;10435217;28;20030;-75
2022/02/02 22:08:34;;;;;;;12.82;5.40;;;;;;;8.97;100.00;102088.78;10423994;28;20126;-74
2022/02/02 22:13:39;;;;;;;8.27;4.78;;;;;;;8.94;100.00;102081.84;10424502;28;20037;-74
2022/02/02 22:18:40;;;;;;;6.60;4.47;;;;;;;8.88;100.00;102092.44;10404307;28;20033;-72
2022/02/02 22:23:42;;;;;;;10.13;4.80;;;;;;;8.89;100.00;102084.16;10402653;28;20386;-74
2022/02/02 22:28:42;;;;;;;9.05;4.07;;;;;;;8.90;100.00;102075.03;10420175;28;20461;-74
2022/02/02 22:33:43;;;;;;;10.40;5.20;;;;;;;8.89;100.00;102084.16;10421447;28;20103;-73
2022/02/02 22:38:44;;;;;;;5.95;5.00;;;;;;;8.93;100.00;102082.81;10402084;28;20457;-74
2022/02/02 22:43:50;;;;;;;13.93;6.63;;;;;;;8.97;100.00;102075.28;10419465;28;20111;-73
2022/02/02 22:48:51;;;;;;;9.90;5.97;;;;;;;8.98;100.00;102083.22;10402213;28;20033;-73
2022/02/02 22:53:51;;;;;;;7.63;6.15;;;;;;;8.99;100.00;102089.47;10400838;28;20037;-73
2022/02/02 22:58:54;;;;;;;13.35;5.78;;;;;;;8.98;100.00;102093.19;10418356;28;20044;-73
2022/02/02 23:03:55;;;;;;;9.80;5.53;;;;;;;9.00;100.00;102093.88;10400626;28;20048;-72
2022/02/02 23:08:57;;;;;;;14.52;5.85;;;;;;;8.94;100.00;102084.53;10399641;28;20056;-74
2022/02/02 23:13:59;;;;;;;21.38;6.18;;;;;;;8.89;100.00;102078.75;10418186;28;20041;-72
2022/02/02 23:19:00;;;;;;;31.83;6.88;;;;;;;8.97;100.00;102086.09;10418806;28;20037;-74
2022/02/02 23:24:03;;;;;;;13.23;7.15;;;;;;;8.92;100.00;102083.00;10400773;28;20040;-74
2022/02/02 23:29:03;;;;;;;21.08;7.97;;;;;;;8.90;100.00;102090.41;10400050;28;20030;-74
2022/02/02 23:34:04;;;;;;;27.88;11.30;;;;;;;8.74;100.00;102089.28;10400774;28;20041;-74
2022/02/02 23:39:04;;;;;;;19.80;9.07;;;;;;;8.77;100.00;102080.84;10399133;28;20083;-73
2022/02/02 23:44:05;;;;;;;25.60;10.60;;;;;;;8.69;100.00;102078.09;10399184;28;20076;-72
2022/02/02 23:49:11;;;;;;;20.95;11.23;;;;;;;8.64;100.00;102074.16;10416507;28;20041;-73
2022/02/02 23:54:11;;;;;;;24.48;11.30;;;;;;;8.55;100.00;102067.84;10399472;28;20061;-73
2022/02/02 23:59:30;;;;;;;30.35;12.85;;;;;;;8.46;100.00;102066.94;10402060;28;20065;-74
